sensor_id;sensor_type;location;lat;lon;timestamp;pressure;altitude;pressure_sealevel;temperature;humidity
55664;BME280;41540;57.880;12.164;2022-11-15T00:09:53;100580.63;;;7.04;100.00
55664;BME280;41540;57.880;12.164;2022-11-15T00:19:54;100529.97;;;6.77;100.00
55664;BME280;41540;57.880;12.164;2022-11-15T00:29:54;100445.53;;;6.40;100.00
55664;BME280;41540;57.880;12.164;2022-11-15T00:39:54;100468.25;;;6.53;100.00
55664;BME280;41540;57.880;12.164;2022-11-15T00:49:55;100466.81;;;6.61;100.00
55664;BME280;41540;57.880;12.164;2022-11-15T00:59:55;100443.94;;;6.43;100.00
55664;BME280;41540;57.880;12.164;2022-11-15T01:09:55;100383.84;;;6.16;100.00
55664;BME280;41540;57.880;12.164;2022-11-15T01:19:56;100397.75;;;6.21;100.00
55664;BME280;41540;57.880;12.164;2022-11-15T01:29:56;100438.13;;;6.49;100.00
55664;BME280;41540;57.880;12.164;2022-11-15T01:39:56;100462.63;;;6.65;100.00
55664;BME280;41540;57.880;12.164;2022-11-15T01:50:04;100451.53;;;6.66;100.00
55664;BME280;41540;57.880;12.164;2022-11-15T02:00:07;100401.72;;;6.38;100.00
55664;BME280;41540;57.880;12.164;2022-11-15T02:10:19;100490.22;;;6.96;100.00
55664;BME280;41540;57.880;12.164;2022-11-15T02:20:47;100464.94;;;6.83;100.00
55664;BME280;41540;57.880;12.164;2022-11-15T02:31:10;100489.94;;;6.87;100.00
55664;BME280;41540;57.880;12.164;2022-11-15T02:41:15;100359.22;;;6.22;100.00
55664;BME280;41540;57.880;12.164;2022-11-15T02:51:17;100455.19;;;6.74;100.00
55664;BME280;41540;57.880;12.164;2022-11-15T03:11:48;100347.75;;;6.13;100.00
55664;BME280;41540;57.880;12.164;2022-11-15T03:21:53;100398.03;;;6.57;100.00
55664;BME280;41540;57.880;12.164;2022-11-15T03:31:56;100445.34;;;6.88;100.00
55664;BME280;41540;57.880;12.164;2022-11-15T03:42:12;100385.09;;;6.54;100.00
55664;BME280;41540;57.880;12.164;2022-11-15T03:52:17;100348.31;;;6.31;100.00
55664;BME280;41540;57.880;12.164;2022-11-15T04:02:19;100362.44;;;6.44;100.00
55664;BME280;41540;57.880;12.164;2022-11-15T04:12:19;100392.13;;;6.60;100.00
55664;BME280;41540;57.880;12.164;2022-11-15T04:22:30;100424.31;;;6.74;100.00
55664;BME280;41540;57.880;12.164;2022-11-15T04:32:49;100405.97;;;6.63;100.00
55664;BME280;41540;57.880;12.164;2022-11-15T04:42:49;100344.59;;;6.21;100.00
55664;BME280;41540;57.880;12.164;2022-11-15T04:52:52;100347.16;;;6.21;100.00
55664;BME280;41540;57.880;12.164;2022-11-15T05:02:53;100440.47;;;6.70;100.00
55664;BME280;41540;57.880;12.164;2022-11-15T05:13:12;100405.69;;;6.54;100.00
55664;BME280;41540;57.880;12.164;2022-11-15T05:23:12;100420.22;;;6.52;100.00
55664;BME280;41540;57.880;12.164;2022-11-15T05:33:12;100271.00;;;5.72;100.00
55664;BME280;41540;57.880;12.164;2022-11-15T05:43:13;100320.22;;;6.10;100.00
55664;BME280;41540;57.880;12.164;2022-11-15T05:53:16;100348.19;;;6.27;100.00
55664;BME280;41540;57.880;12.164;2022-11-15T06:03:18;100413.69;;;6.63;100.00
55664;BME280;41540;57.880;12.164;2022-11-15T06:13:18;100410.84;;;6.56;100.00
55664;BME280;41540;57.880;12.164;2022-11-15T06:23:18;100418.69;;;6.59;100.00
55664;BME280;41540;57.880;12.164;2022-11-15T06:33:19;100412.63;;;6.57;100.00
55664;BME280;41540;57.880;12.164;2022-11-15T06:43:19;100338.47;;;6.18;100.00
55664;BME280;41540;57.880;12.164;2022-11-15T06:53:19;100430.13;;;6.69;100.00
55664;BME280;41540;57.880;12.164;2022-11-15T07:03:20;100397.75;;;6.48;100.00
55664;BME280;41540;57.880;12.164;2022-11-15T07:13:24;100465.56;;;6.76;100.00
55664;BME280;41540;57.880;12.164;2022-11-15T07:23:25;100386.00;;;6.29;100.00
55664;BME280;41540;57.880;12.164;2022-11-15T07:33:25;100371.91;;;6.18;100.00
55664;BME280;41540;57.880;12.164;2022-11-15T07:43:26;100405.69;;;6.54;100.00
55664;BME280;41540;57.880;12.164;2022-11-15T07:53:29;100163.25;;;5.24;100.00
55664;BME280;41540;57.880;12.164;2022-11-15T08:03:30;100370.41;;;6.52;100.00
55664;BME280;41540;57.880;12.164;2022-11-15T08:13:30;100505.56;;;7.20;100.00
55664;BME280;41540;57.880;12.164;2022-11-15T08:23:30;100466.75;;;6.87;100.00
55664;BME280;41540;57.880;12.164;2022-11-15T08:33:32;100425.91;;;6.71;100.00
55664;BME280;41540;57.880;12.164;2022-11-15T08:43:33;100526.50;;;7.31;100.00
55664;BME280;41540;57.880;12.164;2022-11-15T08:53:33;100432.22;;;6.80;100.00
55664;BME280;41540;57.880;12.164;2022-11-15T09:03:34;100501.38;;;7.24;100.00
55664;BME280;41540;57.880;12.164;2022-11-15T09:13:35;100462.13;;;7.04;100.00
55664;BME280;41540;57.880;12.164;2022-11-15T09:23:37;100496.22;;;7.24;100.00
55664;BME280;41540;57.880;12.164;2022-11-15T09:33:38;100524.34;;;7.45;100.00
55664;BME280;41540;57.880;12.164;2022-11-15T09:43:51;100442.59;;;7.12;100.00
55664;BME280;41540;57.880;12.164;2022-11-15T09:54:03;100423.94;;;6.91;100.00
55664;BME280;41540;57.880;12.164;2022-11-15T10:04:05;100507.75;;;7.37;100.00
55664;BME280;41540;57.880;12.164;2022-11-15T10:14:16;100473.56;;;7.14;100.00
55664;BME280;41540;57.880;12.164;2022-11-15T10:24:22;100557.22;;;7.54;100.00
55664;BME280;41540;57.880;12.164;2022-11-15T10:34:23;100438.94;;;6.75;100.00
55664;BME280;41540;57.880;12.164;2022-11-15T10:44:26;100566.09;;;7.62;100.00
55664;BME280;41540;57.880;12.164;2022-11-15T10:54:34;100575.44;;;7.58;100.00
55664;BME280;41540;57.880;12.164;2022-11-15T11:04:50;100499.63;;;7.23;100.00
55664;BME280;41540;57.880;12.164;2022-11-15T11:14:50;100472.53;;;7.07;100.00
55664;BME280;41540;57.880;12.164;2022-11-15T11:25:20;100487.31;;;7.13;100.00
55664;BME280;41540;57.880;12.164;2022-11-15T11:56:32;100541.97;;;7.90;100.00
55664;BME280;41540;57.880;12.164;2022-11-15T12:06:53;100531.38;;;8.11;100.00
55664;BME280;41540;57.880;12.164;2022-11-15T12:16:57;100501.63;;;8.26;100.00
55664;BME280;41540;57.880;12.164;2022-11-15T12:27:18;100499.03;;;8.24;100.00
55664;BME280;41540;57.880;12.164;2022-11-15T12:47:36;100487.50;;;7.49;100.00
55664;BME280;41540;57.880;12.164;2022-11-15T12:57:41;100486.16;;;7.33;100.00
55664;BME280;41540;57.880;12.164;2022-11-15T13:07:54;100566.03;;;7.60;100.00
55664;BME280;41540;57.880;12.164;2022-11-15T13:17:56;100465.16;;;6.91;100.00
55664;BME280;41540;57.880;12.164;2022-11-15T13:27:57;100492.88;;;6.45;100.00
55664;BME280;41540;57.880;12.164;2022-11-15T13:38:03;100549.47;;;6.69;100.00
55664;BME280;41540;57.880;12.164;2022-11-15T13:48:04;100554.38;;;6.89;100.00
55664;BME280;41540;57.880;12.164;2022-11-15T13:58:08;100561.38;;;6.93;100.00
55664;BME280;41540;57.880;12.164;2022-11-15T14:08:27;100483.94;;;6.61;100.00
55664;BME280;41540;57.880;12.164;2022-11-15T14:18:51;100518.22;;;6.86;100.00
55664;BME280;41540;57.880;12.164;2022-11-15T14:28:52;100518.38;;;6.90;100.00
55664;BME280;41540;57.880;12.164;2022-11-15T14:38:52;100520.50;;;6.76;100.00
55664;BME280;41540;57.880;12.164;2022-11-15T14:48:54;100526.03;;;6.89;100.00
55664;BME280;41540;57.880;12.164;2022-11-15T14:58:54;100506.31;;;6.62;100.00
55664;BME280;41540;57.880;12.164;2022-11-15T15:08:55;100138.38;;;6.36;100.00
55664;BME280;41540;57.880;12.164;2022-11-15T15:18:55;99991.78;;;4.88;100.00
55664;BME280;41540;57.880;12.164;2022-11-15T15:28:56;100413.81;;;5.90;100.00
55664;BME280;41540;57.880;12.164;2022-11-15T15:38:56;100532.41;;;6.47;100.00
55664;BME280;41540;57.880;12.164;2022-11-15T15:48:56;100472.44;;;5.98;100.00
55664;BME280;41540;57.880;12.164;2022-11-15T15:58:57;100411.69;;;5.52;100.00
55664;BME280;41540;57.880;12.164;2022-11-15T16:08:57;100458.06;;;5.33;100.00
55664;BME280;41540;57.880;12.164;2022-11-15T16:18:57;100530.53;;;5.46;100.00
55664;BME280;41540;57.880;12.164;2022-11-15T16:28:58;100429.88;;;4.89;100.00
55664;BME280;41540;57.880;12.164;2022-11-15T16:38:59;100513.25;;;5.20;100.00
55664;BME280;41540;57.880;12.164;2022-11-15T16:49:00;100542.44;;;5.44;100.00
55664;BME280;41540;57.880;12.164;2022-11-15T16:59:01;100475.94;;;5.07;100.00
55664;BME280;41540;57.880;12.164;2022-11-15T17:09:01;100479.38;;;5.07;100.00
55664;BME280;41540;57.880;12.164;2022-11-15T17:19:01;100534.38;;;5.35;100.00
55664;BME280;41540;57.880;12.164;2022-11-15T17:29:02;100520.84;;;5.39;100.00
55664;BME280;41540;57.880;12.164;2022-11-15T17:39:06;100516.50;;;5.16;100.00
55664;BME280;41540;57.880;12.164;2022-11-15T17:49:07;100512.56;;;5.24;100.00
55664;BME280;41540;57.880;12.164;2022-11-15T17:59:07;100465.09;;;4.92;100.00
55664;BME280;41540;57.880;12.164;2022-11-15T18:09:08;100503.50;;;5.11;100.00
55664;BME280;41540;57.880;12.164;2022-11-15T18:19:09;100307.88;;;3.86;100.00
55664;BME280;41540;57.880;12.164;2022-11-15T18:29:12;100502.84;;;5.17;100.00
55664;BME280;41540;57.880;12.164;2022-11-15T18:39:13;100499.22;;;5.12;100.00
55664;BME280;41540;57.880;12.164;2022-11-15T18:49:15;100469.94;;;4.84;100.00
55664;BME280;41540;57.880;12.164;2022-11-15T18:59:16;100435.47;;;4.56;100.00
55664;BME280;41540;57.880;12.164;2022-11-15T19:09:17;100618.06;;;5.51;100.00
55664;BME280;41540;57.880;12.164;2022-11-15T19:19:25;100530.50;;;5.01;100.00
55664;BME280;41540;57.880;12.164;2022-11-15T19:29:27;100511.09;;;4.87;100.00
55664;BME280;41540;57.880;12.164;2022-11-15T19:39:27;100505.81;;;4.82;100.00
55664;BME280;41540;57.880;12.164;2022-11-15T19:49:28;100579.03;;;5.16;100.00
55664;BME280;41540;57.880;12.164;2022-11-15T19:59:28;100520.19;;;4.79;100.00
55664;BME280;41540;57.880;12.164;2022-11-15T20:09:28;100639.97;;;5.41;100.00
55664;BME280;41540;57.880;12.164;2022-11-15T20:19:29;100599.69;;;5.19;100.00
55664;BME280;41540;57.880;12.164;2022-11-15T20:29:29;100513.25;;;4.55;100.00
55664;BME280;41540;57.880;12.164;2022-11-15T20:39:29;100576.97;;;5.07;100.00
55664;BME280;41540;57.880;12.164;2022-11-15T20:49:29;100573.91;;;5.16;100.00
55664;BME280;41540;57.880;12.164;2022-11-15T20:59:30;100524.97;;;4.69;100.00
55664;BME280;41540;57.880;12.164;2022-11-15T21:09:30;100519.75;;;4.68;100.00
55664;BME280;41540;57.880;12.164;2022-11-15T21:19:49;100575.16;;;5.05;100.00
55664;BME280;41540;57.880;12.164;2022-11-15T21:29:49;100562.63;;;5.13;100.00
55664;BME280;41540;57.880;12.164;2022-11-15T21:39:49;100307.13;;;3.67;100.00
55664;BME280;41540;57.880;12.164;2022-11-15T21:49:50;100421.09;;;4.39;100.00
55664;BME280;41540;57.880;12.164;2022-11-15T21:59:50;100448.16;;;4.53;100.00
55664;BME280;41540;57.880;12.164;2022-11-15T22:10:09;100539.88;;;5.01;100.00
55664;BME280;41540;57.880;12.164;2022-11-15T22:20:10;100468.38;;;4.66;100.00
55664;BME280;41540;57.880;12.164;2022-11-15T22:30:10;100444.03;;;4.57;100.00
55664;BME280;41540;57.880;12.164;2022-11-15T22:40:11;100444.72;;;4.53;100.00
55664;BME280;41540;57.880;12.164;2022-11-15T22:50:11;100391.84;;;4.13;100.00
55664;BME280;41540;57.880;12.164;2022-11-15T23:00:14;100538.94;;;4.99;100.00
55664;BME280;41540;57.880;12.164;2022-11-15T23:10:15;100534.41;;;4.92;100.00
55664;BME280;41540;57.880;12.164;2022-11-15T23:20:33;100488.34;;;4.74;100.00
55664;BME280;41540;57.880;12.164;2022-11-15T23:30:35;100438.47;;;4.46;100.00
55664;BME280;41540;57.880;12.164;2022-11-15T23:40:54;100530.06;;;4.91;100.00
55664;BME280;41540;57.880;12.164;2022-11-15T23:50:55;100459.81;;;4.45;100.00
